Time;durP1;ratioP1;P1;durP2;ratioP2;P2;SDS_P1;SDS_P2;PMS_P1;PMS_P2;Temp;Humidity;BMP_temperature;BMP_pressure;BME280_temperature;BME280_humidity;BME280_pressure;Samples;Min_cycle;Max_cycle;Signal;HPM_P1;HPM_P2
2022/08/04 00:00:15;;;;;;;970.30;906.47;;;;;;;27.04;44.91;100978.75;697935;28;137960;-68
2022/08/04 00:00:39;;;;;;;973.42;909.53;;;;;;;27.04;45.63;100987.06;702197;28;14313;-67
2022/08/04 00:01:03;;;;;;;979.47;915.28;;;;;;;27.03;45.66;100985.38;698393;28;92336;-67
2022/08/04 00:01:29;;;;;;;984.90;920.50;;;;;;;27.02;45.57;100980.94;699756;28;67631;-67
2022/08/04 00:01:53;;;;;;;968.70;904.83;;;;;;;27.01;45.58;100984.00;697934;28;138106;-67
2022/08/04 00:02:18;;;;;;;976.88;912.78;;;;;;;26.98;45.66;100983.47;698462;28;115083;-70
2022/08/04 00:02:47;;;;;;;972.38;908.40;;;;;;;26.98;45.62;100989.00;698691;28;92268;-66
2022/08/04 00:03:14;;;;;;;969.80;905.95;;;;;;;26.98;45.56;100985.41;695662;28;136002;-67
2022/08/04 00:03:42;;;;;;;981.53;917.25;;;;;;;26.94;45.78;100978.75;696268;28;137993;-66
2022/08/04 00:04:19;;;;;;;999.70;934.70;;;;;;;26.95;45.86;100984.00;695880;28;137808;-65
2022/08/04 00:04:43;;;;;;;989.75;925.17;;;;;;;26.94;45.83;100987.91;698630;28;137240;-67
2022/08/04 00:05:07;;;;;;;976.80;912.67;;;;;;;26.93;45.85;100991.78;699924;28;92302;-68
2022/08/04 00:05:36;;;;;;;969.30;905.50;;;;;;;26.92;45.39;100981.81;698886;28;92101;-67
2022/08/04 00:06:00;;;;;;;978.35;914.20;;;;;;;26.92;45.67;100989.31;697910;28;137664;-68
2022/08/04 00:06:29;;;;;;;970.10;906.42;;;;;;;26.92;45.73;100989.31;699006;28;90475;-67
2022/08/04 00:06:59;;;;;;;967.08;903.38;;;;;;;26.90;45.49;100977.69;695628;28;179313;-67
2022/08/04 00:07:26;;;;;;;983.33;919.03;;;;;;;26.92;45.71;100981.81;697929;28;138051;-67
2022/08/04 00:07:54;;;;;;;955.40;892.15;;;;;;;26.91;45.46;100985.72;697452;28;137877;-67
2022/08/04 00:08:22;;;;;;;961.65;898.13;;;;;;;26.94;45.24;100985.16;697785;28;136273;-68
2022/08/04 00:08:46;;;;;;;971.17;907.38;;;;;;;26.93;45.87;100988.19;698388;28;137795;-66
2022/08/04 00:09:10;;;;;;;965.55;901.95;;;;;;;26.93;45.32;100986.25;699563;28;69190;-67
2022/08/04 00:09:39;;;;;;;968.05;904.30;;;;;;;26.93;45.69;100986.25;698924;28;90324;-66
2022/08/04 00:10:01;;;;;;;968.35;904.55;;;;;;;26.93;45.89;100989.03;696150;28;159082;-66
2022/08/04 00:10:23;;;;;;;955.35;892.05;;;;;;;26.92;45.47;100989.31;701748;28;36571;-66
2022/08/04 00:10:50;;;;;;;970.35;906.53;;;;;;;26.91;45.48;100982.94;701337;28;46324;-66
2022/08/04 00:11:14;;;;;;;977.50;913.38;;;;;;;26.90;45.90;100977.69;698367;28;139202;-66
2022/08/04 00:11:38;;;;;;;935.88;873.15;;;;;;;26.90;45.69;100991.53;698032;28;114980;-66
2022/08/04 00:12:01;;;;;;;941.45;878.60;;;;;;;26.90;45.46;100980.44;698995;28;90092;-66
2022/08/04 00:12:29;;;;;;;934.75;872.10;;;;;;;26.90;45.59;100981.28;701083;28;45256;-67
2022/08/04 00:12:51;;;;;;;881.90;820.78;;;;;;;26.87;45.74;100978.25;696719;28;160897;-66
2022/08/04 00:13:12;;;;;;;980.33;916.08;;;;;;;26.84;46.14;100976.84;701915;28;44951;-66
2022/08/04 00:13:37;;;;;;;995.03;930.40;;;;;;;26.84;46.11;100978.81;701136;28;45241;-66
2022/08/04 00:14:02;;;;;;;981.15;916.90;;;;;;;26.82;45.62;100978.22;698588;28;92163;-67
2022/08/04 00:14:23;;;;;;;941.60;878.70;;;;;;;26.82;45.60;100981.84;698283;28;138240;-66
2022/08/04 00:14:47;;;;;;;988.47;924.00;;;;;;;26.83;45.73;100983.50;700544;28;44431;-66
2022/08/04 00:15:10;;;;;;;974.03;910.05;;;;;;;26.80;45.73;100981.28;699152;28;92290;-65
2022/08/04 00:15:33;;;;;;;971.58;907.60;;;;;;;26.77;46.31;100984.59;701208;28;44256;-65
2022/08/04 00:15:59;;;;;;;976.22;912.05;;;;;;;26.76;45.98;100978.25;699309;28;68495;-65
2022/08/04 00:16:21;;;;;;;946.80;883.67;;;;;;;26.72;46.16;100974.38;697710;28;137710;-67
2022/08/04 00:16:45;;;;;;;953.53;890.22;;;;;;;26.77;45.91;100984.59;699218;28;89271;-66
2022/08/04 00:17:08;;;;;;;949.33;886.03;;;;;;;26.75;46.25;100978.53;699776;28;70268;-67
2022/08/04 00:17:31;;;;;;;975.85;911.75;;;;;;;26.74;45.99;100977.72;700237;28;69388;-66
2022/08/04 00:17:54;;;;;;;968.45;904.65;;;;;;;26.74;46.38;100976.84;698858;28;92269;-66
2022/08/04 00:18:16;;;;;;;978.42;914.25;;;;;;;26.73;46.14;100980.75;701185;28;47390;-66
2022/08/04 00:18:40;;;;;;;973.78;909.80;;;;;;;26.72;46.23;100979.91;701312;28;44364;-67
2022/08/04 00:19:03;;;;;;;979.67;915.45;;;;;;;26.71;46.51;100983.81;698755;28;92232;-66
2022/08/04 00:19:30;;;;;;;962.78;899.20;;;;;;;26.66;46.51;100969.97;700837;28;59123;-66
2022/08/04 00:19:56;;;;;;;963.70;900.10;;;;;;;26.69;46.36;100983.22;697183;28;137875;-67
2022/08/04 00:20:18;;;;;;;956.17;892.80;;;;;;;26.67;46.21;100973.56;698249;28;138853;-65
2022/08/04 00:20:41;;;;;;;958.28;894.90;;;;;;;26.65;46.17;100973.00;700773;28;45047;-66
2022/08/04 00:21:05;;;;;;;968.20;904.47;;;;;;;26.67;46.31;100977.16;699940;28;69473;-67
2022/08/04 00:21:28;;;;;;;964.92;901.33;;;;;;;26.64;46.12;100969.38;698731;28;92223;-68
2022/08/04 00:21:53;;;;;;;981.15;916.92;;;;;;;26.60;46.59;100971.88;700865;28;46366;-65
2022/08/04 00:22:19;;;;;;;964.75;901.17;;;;;;;26.68;46.33;100975.19;699402;28;107439;-67
2022/08/04 00:22:42;;;;;;;982.83;918.60;;;;;;;26.64;46.29;100974.91;698667;28;115128;-65
2022/08/04 00:23:07;;;;;;;977.10;913.05;;;;;;;26.69;46.69;100979.66;699829;28;92137;-66
2022/08/04 00:23:29;;;;;;;975.55;911.53;;;;;;;26.66;46.23;100969.13;699115;28;105671;-66
2022/08/04 00:23:51;;;;;;;973.10;909.20;;;;;;;26.63;46.63;100970.50;700496;28;45356;-66
2022/08/04 00:24:13;;;;;;;975.05;911.10;;;;;;;26.67;46.50;100979.09;700652;28;46437;-67
2022/08/04 00:24:36;;;;;;;972.70;908.78;;;;;;;26.67;46.50;100977.16;700940;28;46300;-66
2022/08/04 00:25:01;;;;;;;966.50;902.80;;;;;;;26.66;46.09;100971.91;700454;28;43684;-66
2022/08/04 00:25:22;;;;;;;974.38;910.40;;;;;;;26.62;46.79;100966.06;699001;28;115386;-66
2022/08/04 00:25:43;;;;;;;978.17;914.08;;;;;;;26.65;46.21;100973.00;701632;28;22291;-66
2022/08/04 00:26:09;;;;;;;982.15;917.85;;;;;;;26.69;46.50;100976.88;701526;28;27283;-66
2022/08/04 00:26:39;;;;;;;983.70;919.08;;;;;;;26.59;46.82;100958.31;699198;28;60924;-67
2022/08/04 00:27:02;;;;;;;977.00;912.40;;;;;;;26.60;46.35;100963.56;695407;28;139793;-66
2022/08/04 00:27:28;;;;;;;973.90;909.47;;;;;;;26.60;46.59;100965.53;696814;28;39501;-66
2022/08/04 00:27:50;;;;;;;966.10;902.35;;;;;;;26.65;46.52;100971.06;694785;28;92053;-66
2022/08/04 00:28:12;;;;;;;978.38;914.20;;;;;;;26.62;46.46;100960.53;697705;28;21515;-66
2022/08/04 00:28:36;;;;;;;975.47;911.42;;;;;;;26.65;46.99;100970.22;696678;28;44427;-67
2022/08/04 00:28:58;;;;;;;972.97;909.00;;;;;;;26.64;46.90;100974.91;697243;28;92168;-67
2022/08/04 00:29:20;;;;;;;974.65;910.63;;;;;;;26.65;46.74;100971.06;701189;28;46245;-66
2022/08/04 00:29:41;;;;;;;976.58;912.50;;;;;;;26.66;46.79;100971.91;701269;28;44485;-66
2022/08/04 00:30:04;;;;;;;976.08;912.03;;;;;;;26.67;46.82;100973.56;700718;28;45347;-66
2022/08/04 00:30:29;;;;;;;966.08;902.40;;;;;;;26.66;46.59;100972.75;701263;28;46098;-68
2022/08/04 00:30:52;;;;;;;959.63;896.17;;;;;;;26.66;46.97;100969.13;697909;28;116378;-66
2022/08/04 00:31:14;;;;;;;975.78;911.72;;;;;;;26.66;46.52;100975.50;700388;28;69332;-66
2022/08/04 00:31:36;;;;;;;973.90;909.92;;;;;;;26.65;46.48;100979.38;699931;28;67252;-66
2022/08/04 00:31:57;;;;;;;970.60;906.70;;;;;;;26.65;46.60;100975.75;700585;28;46421;-67
2022/08/04 00:32:19;;;;;;;973.28;909.28;;;;;;;26.63;46.71;100976.03;701989;28;21331;-67
2022/08/04 00:32:41;;;;;;;972.92;908.92;;;;;;;26.57;46.80;100972.44;701115;28;44392;-67
2022/08/04 00:33:02;;;;;;;970.17;906.33;;;;;;;26.59;47.02;100972.16;700867;28;46387;-66
2022/08/04 00:33:23;;;;;;;952.63;889.42;;;;;;;26.58;47.19;100974.09;701687;28;22523;-67
2022/08/04 00:33:46;;;;;;;958.88;895.42;;;;;;;26.58;46.57;100984.34;701444;28;21525;-67
2022/08/04 00:34:09;;;;;;;978.45;914.17;;;;;;;26.52;47.12;100978.00;700460;28;69386;-67
2022/08/04 00:34:31;;;;;;;967.50;903.65;;;;;;;26.48;47.00;100970.50;700294;28;68246;-67
2022/08/04 00:34:54;;;;;;;963.17;899.58;;;;;;;26.48;46.83;100971.34;700773;28;46340;-66
2022/08/04 00:35:17;;;;;;;968.72;904.92;;;;;;;26.50;46.87;100973.81;701433;28;46295;-66
2022/08/04 00:35:38;;;;;;;980.80;916.60;;;;;;;26.49;47.38;100972.16;699725;28;90456;-66
2022/08/04 00:36:00;;;;;;;965.20;901.47;;;;;;;26.49;47.03;100974.94;701523;28;21513;-67
2022/08/04 00:36:21;;;;;;;956.42;892.97;;;;;;;26.46;47.32;100965.25;702474;28;21507;-68
2022/08/04 00:36:44;;;;;;;887.13;825.83;;;;;;;26.48;47.42;100976.88;699745;28;43953;-67
2022/08/04 00:37:05;;;;;;;901.05;839.30;;;;;;;26.49;46.94;100978.53;700035;28;69224;-67
2022/08/04 00:37:27;;;;;;;983.95;919.60;;;;;;;26.50;46.95;100976.59;701500;28;46371;-67
2022/08/04 00:37:49;;;;;;;989.47;924.95;;;;;;;26.49;47.06;100980.47;701801;28;22415;-67
2022/08/04 00:38:11;;;;;;;935.38;872.65;;;;;;;26.48;47.13;100974.09;700158;28;67268;-67
2022/08/04 00:38:33;;;;;;;939.92;877.13;;;;;;;26.46;47.07;100968.03;701935;28;22367;-67
2022/08/04 00:38:54;;;;;;;965.30;901.60;;;;;;;26.49;47.51;100978.53;700158;28;69417;-68
2022/08/04 00:39:17;;;;;;;940.35;877.53;;;;;;;26.49;47.52;100977.69;701243;28;44989;-66
2022/08/04 00:39:39;;;;;;;944.20;881.22;;;;;;;26.49;47.14;100977.69;701795;28;45581;-66
2022/08/04 00:40:02;;;;;;;984.75;920.35;;;;;;;26.49;47.51;100978.53;702023;28;46398;-66
2022/08/04 00:40:44;;;;;;;980.50;916.20;;;;;;;26.43;47.45;100966.63;701472;28;69261;-66
2022/08/04 00:41:13;;;;;;;966.55;902.83;;;;;;;26.40;47.57;100961.66;699045;28;138632;-67
2022/08/04 00:41:40;;;;;;;978.80;914.60;;;;;;;26.45;47.61;100974.66;696877;28;130190;-67
2022/08/04 00:42:38;;;;;;;960.35;896.72;;;;;;;26.47;47.50;100971.63;697925;28;137957;-67
2022/08/04 00:43:08;;;;;;;979.65;915.35;;;;;;;26.42;47.22;100966.91;697607;28;137736;-66
2022/08/04 00:43:31;;;;;;;965.25;901.55;;;;;;;26.47;47.13;100979.91;697196;28;137800;-66
2022/08/04 00:44:09;;;;;;;965.13;901.40;;;;;;;26.44;47.41;100982.16;700437;28;69220;-67
2022/08/04 00:44:38;;;;;;;975.20;911.08;;;;;;;26.44;47.16;100975.75;697705;28;137482;-67
2022/08/04 00:45:26;;;;;;;968.33;904.40;;;;;;;26.46;47.27;100981.88;697353;28;137577;-67
2022/08/04 00:46:23;;;;;;;969.50;905.63;;;;;;;26.47;47.39;100977.97;692140;28;138382;-65
2022/08/04 00:47:06;;;;;;;962.15;898.58;;;;;;;26.47;47.24;100977.16;692382;28;157384;-68
2022/08/04 00:47:40;;;;;;;975.83;911.72;;;;;;;26.46;47.81;100981.88;697453;28;135988;-67
2022/08/04 00:48:09;;;;;;;971.40;907.50;;;;;;;26.45;47.44;100971.88;698515;28;138614;-67
2022/08/04 00:48:52;;;;;;;965.35;901.72;;;;;;;26.44;47.76;100967.44;697577;28;136104;-67
2022/08/04 00:49:35;;;;;;;955.55;892.25;;;;;;;26.44;47.95;100971.06;697976;28;137507;-67
2022/08/04 00:50:05;;;;;;;957.80;894.40;;;;;;;26.44;47.40;100973.00;697037;28;137429;-68
2022/08/04 00:50:35;;;;;;;968.42;904.63;;;;;;;26.42;47.79;100970.50;698791;28;114905;-68
2022/08/04 00:51:02;;;;;;;951.63;888.38;;;;;;;26.43;47.96;100974.94;697016;28;138763;-68
2022/08/04 00:51:28;;;;;;;982.08;917.72;;;;;;;26.43;47.87;100969.41;697344;28;137823;-67
2022/08/04 00:51:56;;;;;;;970.70;906.75;;;;;;;26.43;47.83;100971.34;697205;28;137683;-67
2022/08/04 00:52:29;;;;;;;967.78;903.95;;;;;;;26.42;47.66;100976.03;697992;28;136249;-67
2022/08/04 00:53:06;;;;;;;968.55;904.70;;;;;;;26.43;47.88;100972.16;699564;28;137395;-67
2022/08/04 00:53:31;;;;;;;935.22;872.60;;;;;;;26.43;47.83;100969.41;698217;28;135742;-67
2022/08/04 00:54:02;;;;;;;955.90;892.55;;;;;;;26.36;47.79;100962.47;700324;28;114477;-67
2022/08/04 00:54:44;;;;;;;961.92;898.28;;;;;;;26.39;47.59;100968.28;700406;28;137573;-68
2022/08/04 00:55:23;;;;;;;953.60;890.40;;;;;;;26.41;47.48;100968.00;698033;28;137385;-68
2022/08/04 00:56:12;;;;;;;964.17;900.47;;;;;;;26.42;47.42;100969.69;697576;28;137810;-67
2022/08/04 00:56:53;;;;;;;977.30;913.22;;;;;;;26.40;47.55;100969.97;690591;28;135641;-67
2022/08/04 00:57:29;;;;;;;983.08;918.58;;;;;;;26.40;48.05;100969.13;698191;28;129929;-69
2022/08/04 00:58:02;;;;;;;972.47;908.53;;;;;;;26.37;48.33;100972.47;697544;28;137335;-67
2022/08/04 00:58:43;;;;;;;977.25;913.20;;;;;;;26.31;47.89;100968.84;697201;28;160043;-67
2022/08/04 00:59:13;;;;;;;968.92;905.13;;;;;;;26.33;48.10;100971.34;697420;28;137710;-67
2022/08/04 00:59:50;;;;;;;962.45;898.85;;;;;;;26.34;47.85;100970.25;697882;28;136098;-67
2022/08/04 01:00:14;;;;;;;975.95;911.85;;;;;;;26.35;48.23;100974.66;697259;28;158933;-67
2022/08/04 01:00:41;;;;;;;966.58;902.85;;;;;;;26.36;48.21;100973.56;699661;28;92157;-67
2022/08/04 01:01:04;;;;;;;971.47;907.55;;;;;;;26.31;48.21;100966.09;697183;28;136314;-67
2022/08/04 01:01:38;;;;;;;981.65;917.35;;;;;;;26.38;47.92;100974.09;699686;28;68328;-67
2022/08/04 01:02:07;;;;;;;974.95;910.85;;;;;;;26.40;47.84;100978.25;697424;28;137181;-68
2022/08/04 01:02:35;;;;;;;964.80;901.13;;;;;;;26.43;47.58;100971.34;697681;28;136193;-67
2022/08/04 01:03:09;;;;;;;964.30;900.60;;;;;;;26.46;47.52;100969.94;697497;28;138097;-67
2022/08/04 01:03:49;;;;;;;975.83;911.78;;;;;;;26.47;47.59;100971.63;697273;28;158710;-66
2022/08/04 01:04:16;;;;;;;973.75;909.75;;;;;;;26.44;47.94;100971.06;697709;28;137660;-68
2022/08/04 01:04:45;;;;;;;973.40;909.40;;;;;;;26.45;47.75;100974.66;697862;28;138703;-67
2022/08/04 01:05:16;;;;;;;965.88;902.17;;;;;;;26.41;47.97;100973.53;698145;28;137531;-66
2022/08/04 01:05:48;;;;;;;978.10;913.92;;;;;;;26.40;47.95;100977.44;698182;28;137258;-67
2022/08/04 01:06:13;;;;;;;972.10;908.13;;;;;;;26.37;48.13;100972.47;697959;28;135880;-67
2022/08/04 01:06:37;;;;;;;975.88;911.88;;;;;;;26.36;47.77;100976.31;698291;28;115290;-68
2022/08/04 01:07:14;;;;;;;949.60;886.22;;;;;;;26.36;47.74;100970.78;697589;28;113654;-67
2022/08/04 01:08:01;;;;;;;964.25;900.55;;;;;;;26.36;48.21;100981.84;697806;28;137680;-67
2022/08/04 01:08:44;;;;;;;966.67;902.90;;;;;;;26.39;47.73;100978.53;697994;28;137438;-68
2022/08/04 01:09:22;;;;;;;967.28;903.53;;;;;;;26.45;47.58;100980.19;697592;28;135628;-69
2022/08/04 01:09:51;;;;;;;955.05;891.63;;;;;;;26.48;47.42;100967.75;697170;28;160687;-67
2022/08/04 01:10:19;;;;;;;952.23;888.93;;;;;;;26.49;47.69;100972.16;698110;28;136064;-67
2022/08/04 01:10:47;;;;;;;961.63;898.05;;;;;;;26.49;47.51;100974.94;697621;28;160871;-67
2022/08/04 01:11:22;;;;;;;966.53;902.72;;;;;;;26.47;47.61;100969.66;697715;28;160700;-67
2022/08/04 01:11:58;;;;;;;954.10;890.70;;;;;;;26.48;47.68;100968.56;696741;28;157750;-67
2022/08/04 01:12:40;;;;;;;969.13;905.28;;;;;;;26.48;47.65;100974.09;699145;28;137526;-67
2022/08/04 01:13:13;;;;;;;959.60;896.03;;;;;;;26.49;47.33;100970.25;697809;28;137792;-67
2022/08/04 01:13:55;;;;;;;968.13;904.38;;;;;;;26.49;47.48;100970.25;698783;28;137712;-67
2022/08/04 01:14:43;;;;;;;958.03;894.58;;;;;;;26.48;47.90;100967.75;697301;28;160601;-67
2022/08/04 01:15:06;;;;;;;968.92;905.20;;;;;;;26.47;47.42;100972.44;698200;28;137423;-67
2022/08/04 01:15:35;;;;;;;962.30;898.75;;;;;;;26.47;47.77;100972.44;700215;28;92601;-67
2022/08/04 01:16:02;;;;;;;966.83;903.10;;;;;;;26.48;47.80;100973.28;697681;28;137855;-67
2022/08/04 01:16:25;;;;;;;960.95;897.42;;;;;;;26.47;47.92;100971.63;697618;28;137707;-67
2022/08/04 01:16:49;;;;;;;971.63;907.72;;;;;;;26.44;47.94;100968.31;700277;28;69260;-67
2022/08/04 01:17:19;;;;;;;968.05;904.25;;;;;;;26.43;47.45;100974.13;700443;28;69450;-67
2022/08/04 01:17:54;;;;;;;956.67;893.28;;;;;;;26.39;47.95;100973.00;698687;28;136321;-67
2022/08/04 01:18:21;;;;;;;977.67;913.60;;;;;;;26.41;47.80;100974.41;697742;28;160440;-67
2022/08/04 01:18:47;;;;;;;966.30;902.63;;;;;;;26.40;47.60;100977.44;698381;28;138352;-67
2022/08/04 01:19:35;;;;;;;970.00;906.10;;;;;;;26.38;47.88;100974.94;698582;28;137728;-67
2022/08/04 01:20:01;;;;;;;960.72;897.20;;;;;;;26.36;47.70;100976.31;697626;28;137966;-67
2022/08/04 01:20:24;;;;;;;964.13;900.53;;;;;;;26.35;47.93;100977.41;698604;28;138409;-67
2022/08/04 01:20:57;;;;;;;970.15;906.35;;;;;;;26.31;48.01;100968.84;699466;28;92231;-67
2022/08/04 01:21:47;;;;;;;960.75;897.15;;;;;;;26.30;48.17;100972.75;697953;28;138451;-67
2022/08/04 01:22:27;;;;;;;952.22;889.00;;;;;;;26.29;47.86;100973.03;693281;28;180681;-67
2022/08/04 01:23:27;;;;;;;952.25;889.03;;;;;;;26.25;47.93;100968.03;697812;28;137703;-67
2022/08/04 01:24:03;;;;;;;956.70;893.33;;;;;;;26.29;47.87;100973.03;697790;28;137560;-68
2022/08/04 01:24:29;;;;;;;959.08;895.47;;;;;;;26.28;48.31;100974.13;698574;28;137298;-67
2022/08/04 01:25:28;;;;;;;961.88;898.28;;;;;;;26.24;48.28;100963.59;698451;28;113579;-67
2022/08/04 01:26:04;;;;;;;842.35;782.38;;;;;;;26.26;48.04;100968.84;698066;28;137703;-67
2022/08/04 01:26:43;;;;;;;891.60;830.30;;;;;;;26.21;48.36;100955.84;697298;28;136049;-67
2022/08/04 01:27:08;;;;;;;970.35;906.30;;;;;;;26.24;48.64;100968.31;697359;28;138294;-67
2022/08/04 01:27:43;;;;;;;917.45;855.30;;;;;;;26.25;48.32;100970.81;698982;28;113501;-67
2022/08/04 01:28:17;;;;;;;953.70;890.38;;;;;;;26.24;48.03;100965.53;697567;28;160361;-67
2022/08/04 01:28:57;;;;;;;950.67;887.35;;;;;;;26.24;48.30;100973.84;696858;28;137990;-67
2022/08/04 01:29:22;;;;;;;965.45;901.75;;;;;;;26.22;48.14;100960.28;698425;28;137702;-67
2022/08/04 01:29:47;;;;;;;963.58;899.95;;;;;;;26.21;48.20;100972.44;699903;28;93017;-67
2022/08/04 01:30:08;;;;;;;948.85;885.80;;;;;;;26.22;48.46;100967.75;698438;28;136234;-67
2022/08/04 01:30:32;;;;;;;951.92;888.78;;;;;;;26.23;48.54;100969.41;702305;28;23439;-67
2022/08/04 01:30:56;;;;;;;964.95;901.15;;;;;;;26.21;48.56;100975.22;699882;28;69418;-68
2022/08/04 01:31:26;;;;;;;943.95;880.95;;;;;;;26.19;48.11;100969.16;699307;28;115095;-67
2022/08/04 01:31:55;;;;;;;960.67;897.13;;;;;;;26.19;48.53;100976.59;696458;28;157640;-67
2022/08/04 01:32:20;;;;;;;963.58;899.85;;;;;;;26.19;48.19;100974.69;698106;28;136933;-67
2022/08/04 01:32:48;;;;;;;919.22;856.95;;;;;;;26.14;48.44;100969.13;698665;28;138098;-67
2022/08/04 01:33:13;;;;;;;937.17;874.35;;;;;;;26.17;48.26;100971.34;698393;28;137990;-67
2022/08/04 01:33:35;;;;;;;980.97;916.75;;;;;;;26.17;48.53;100978.81;699439;27;115743;-67
2022/08/04 01:33:59;;;;;;;967.63;903.72;;;;;;;26.13;48.66;100973.00;700477;28;43965;-67
2022/08/04 01:34:22;;;;;;;951.50;888.17;;;;;;;26.17;48.27;100976.88;698940;28;115228;-67
2022/08/04 01:34:47;;;;;;;926.85;864.35;;;;;;;26.15;48.64;100972.75;699813;28;90776;-67
2022/08/04 01:35:12;;;;;;;956.53;893.05;;;;;;;26.17;48.07;100978.81;699094;28;115550;-67
2022/08/04 01:35:38;;;;;;;944.05;881.13;;;;;;;26.16;48.78;100975.22;698667;28;136433;-67
2022/08/04 01:36:03;;;;;;;951.42;888.15;;;;;;;26.13;48.47;100970.25;697926;28;137913;-68
2022/08/04 01:36:24;;;;;;;950.83;887.63;;;;;;;26.12;48.58;100970.53;699833;28;80205;-67
2022/08/04 01:36:47;;;;;;;946.63;883.45;;;;;;;26.13;48.43;100969.41;700881;28;44375;-67
2022/08/04 01:37:12;;;;;;;965.30;901.38;;;;;;;26.11;48.31;100972.44;701829;28;46399;-68
2022/08/04 01:37:45;;;;;;;969.67;905.75;;;;;;;26.11;48.41;100971.63;698871;28;115382;-67
2022/08/04 01:38:16;;;;;;;959.42;895.92;;;;;;;26.07;48.67;100974.94;698357;28;137633;-67
2022/08/04 01:38:39;;;;;;;964.17;900.47;;;;;;;26.06;48.66;100976.03;698633;28;137683;-67
2022/08/04 01:39:39;;;;;;;973.35;909.35;;;;;;;26.04;48.62;100972.72;700337;28;70302;-67
2022/08/04 01:39:59;;;;;;;980.65;916.47;;;;;;;26.03;48.91;100979.34;699927;28;60820;-67
2022/08/04 01:40:21;;;;;;;959.22;895.63;;;;;;;26.02;48.34;100974.94;698358;28;137914;-68
2022/08/04 01:40:45;;;;;;;969.85;905.90;;;;;;;26.00;48.74;100977.16;702725;28;23374;-67
2022/08/04 01:41:07;;;;;;;986.10;921.60;;;;;;;26.00;48.94;100974.41;699835;28;92250;-68
2022/08/04 01:41:29;;;;;;;967.53;903.72;;;;;;;25.99;48.87;100975.50;701273;27;46307;-68
2022/08/04 01:41:51;;;;;;;963.33;899.65;;;;;;;26.00;48.87;100977.16;701053;28;45255;-67
2022/08/04 01:42:12;;;;;;;971.28;907.35;;;;;;;26.01;48.94;100975.22;701685;28;44365;-67
2022/08/04 01:42:36;;;;;;;968.97;905.17;;;;;;;26.01;48.75;100978.81;702154;28;23477;-67
2022/08/04 01:42:59;;;;;;;978.63;914.45;;;;;;;26.01;48.83;100980.75;699471;28;92232;-66
2022/08/04 01:43:20;;;;;;;984.47;920.10;;;;;;;26.01;49.04;100972.44;699830;28;69447;-66
2022/08/04 01:43:43;;;;;;;966.60;902.90;;;;;;;26.02;48.53;100971.31;701711;28;46319;-66
2022/08/04 01:44:07;;;;;;;970.00;906.13;;;;;;;26.02;49.04;100980.47;700005;28;70048;-66
2022/08/04 01:44:31;;;;;;;969.05;905.17;;;;;;;26.03;48.33;100975.75;700148;28;90538;-66
2022/08/04 01:44:54;;;;;;;975.45;911.40;;;;;;;26.04;48.50;100983.78;699606;28;92775;-66
2022/08/04 01:45:16;;;;;;;980.78;916.53;;;;;;;26.03;48.81;100976.59;700667;28;69414;-66
2022/08/04 01:45:37;;;;;;;968.42;904.60;;;;;;;26.03;48.78;100973.81;702469;28;22398;-66
2022/08/04 01:46:01;;;;;;;973.83;909.72;;;;;;;26.02;48.87;100971.31;701117;28;46440;-66
2022/08/04 01:46:23;;;;;;;971.28;907.45;;;;;;;25.98;48.67;100971.06;700115;28;92334;-66
2022/08/04 01:46:45;;;;;;;968.35;904.53;;;;;;;25.97;48.97;100974.94;700100;28;66549;-67
2022/08/04 01:47:08;;;;;;;972.38;908.28;;;;;;;26.03;48.58;100981.28;700250;28;69288;-66
2022/08/04 01:47:31;;;;;;;978.78;914.45;;;;;;;26.01;48.79;100972.44;700613;28;69377;-66
2022/08/04 01:47:53;;;;;;;970.47;906.58;;;;;;;26.00;49.19;100981.84;702898;28;46238;-66
2022/08/04 01:48:15;;;;;;;981.22;916.95;;;;;;;25.99;49.16;100977.44;700857;28;69448;-65
2022/08/04 01:48:37;;;;;;;979.75;915.45;;;;;;;26.01;49.08;100975.22;701705;27;44146;-66
2022/08/04 01:49:00;;;;;;;980.10;915.78;;;;;;;26.00;48.65;100979.94;701294;28;43722;-66
2022/08/04 01:49:27;;;;;;;969.80;905.83;;;;;;;25.99;48.98;100978.25;700826;28;68401;-67
2022/08/04 01:49:50;;;;;;;976.85;912.63;;;;;;;26.00;49.05;100985.47;697731;28;138191;-66
2022/08/04 01:50:13;;;;;;;972.80;908.75;;;;;;;25.99;49.17;100972.72;700018;28;92198;-66
2022/08/04 01:50:36;;;;;;;975.72;911.63;;;;;;;25.99;49.04;100981.03;702702;28;44431;-66
2022/08/04 01:50:58;;;;;;;961.35;897.70;;;;;;;25.98;49.30;100973.00;700794;28;69316;-66
2022/08/04 01:51:21;;;;;;;972.28;908.13;;;;;;;25.97;48.86;100983.25;701746;28;61540;-67
2022/08/04 01:51:43;;;;;;;960.63;896.97;;;;;;;25.96;49.24;100973.25;701149;28;44478;-67
2022/08/04 01:52:08;;;;;;;965.85;902.00;;;;;;;25.95;49.15;100977.09;702823;28;46236;-67
2022/08/04 01:52:30;;;;;;;956.75;893.25;;;;;;;25.93;48.63;100975.72;699545;28;113591;-67
2022/08/04 01:52:53;;;;;;;972.60;908.50;;;;;;;25.95;49.34;100977.09;701085;28;46459;-67
2022/08/04 01:53:15;;;;;;;990.03;925.35;;;;;;;25.94;48.72;100974.59;701026;28;71163;-66
2022/08/04 01:53:38;;;;;;;957.25;893.78;;;;;;;25.94;49.02;100975.47;701431;28;45237;-68
2022/08/04 01:53:59;;;;;;;967.40;903.50;;;;;;;25.93;48.84;100973.78;699955;28;69446;-67
2022/08/04 01:54:21;;;;;;;970.33;906.35;;;;;;;25.93;48.95;100976.56;702831;28;22401;-66
2022/08/04 01:54:44;;;;;;;977.13;912.85;;;;;;;25.90;48.88;100968.81;701370;28;46399;-69
2022/08/04 01:55:09;;;;;;;969.03;905.00;;;;;;;25.91;48.98;100973.25;701034;28;67338;-68
2022/08/04 01:55:30;;;;;;;981.03;916.63;;;;;;;25.91;49.20;100978.78;699071;28;114939;-68
2022/08/04 01:55:52;;;;;;;973.10;908.95;;;;;;;25.88;48.93;100969.06;701291;28;22450;-67
2022/08/04 01:56:15;;;;;;;968.13;904.15;;;;;;;25.89;49.28;100976.28;702492;28;25573;-66
2022/08/04 01:56:36;;;;;;;969.93;905.97;;;;;;;25.87;48.87;100970.16;700132;28;69361;-66
2022/08/04 01:56:57;;;;;;;935.17;872.25;;;;;;;25.83;49.25;100966.31;701147;28;46446;-67
2022/08/04 01:57:20;;;;;;;956.03;892.38;;;;;;;25.83;49.26;100982.91;701886;28;23435;-66
2022/08/04 01:57:42;;;;;;;959.70;896.00;;;;;;;25.83;49.09;100982.91;701071;28;68313;-66
2022/08/04 01:58:04;;;;;;;949.55;886.22;;;;;;;25.82;49.32;100984.00;701469;28;43925;-68
2022/08/04 01:58:28;;;;;;;949.78;886.45;;;;;;;25.83;49.25;100982.06;702535;28;13952;-67
2022/08/04 01:58:51;;;;;;;979.65;915.35;;;;;;;25.83;49.01;100980.16;699544;28;90510;-67
2022/08/04 01:59:17;;;;;;;960.08;896.38;;;;;;;25.82;49.13;100975.69;700638;28;69379;-66
2022/08/04 01:59:39;;;;;;;963.10;899.40;;;;;;;25.82;49.12;100983.19;698127;28;137746;-67
2022/08/04 02:00:01;;;;;;;954.95;891.45;;;;;;;25.81;49.38;100982.34;701139;28;46408;-67
2022/08/04 02:00:25;;;;;;;954.97;891.47;;;;;;;25.79;49.03;100973.47;702540;28;9214;-67
2022/08/04 02:00:55;;;;;;;971.85;907.75;;;;;;;25.79;49.13;100984.56;699221;28;113560;-67
2022/08/04 02:01:16;;;;;;;966.17;902.30;;;;;;;25.79;49.55;100979.03;696984;28;135175;-66
2022/08/04 02:01:37;;;;;;;970.80;906.80;;;;;;;25.78;49.29;100987.59;700637;28;23429;-66